Time;durP1;ratioP1;P1;durP2;ratioP2;P2;SDS_P1;SDS_P2;PMS_P1;PMS_P2;Temp;Humidity;BMP_temperature;BMP_pressure;BME280_temperature;BME280_humidity;BME280_pressure;Samples;Min_cycle;Max_cycle;Signal;HPM_P1;HPM_P2
2022/09/08 00:00:53;;;;;;;9.73;3.22;;;;;;;17.78;100.00;100760.91;5234485;28;20029;-71
2022/09/08 00:03:27;;;;;;;10.05;3.30;;;;;;;17.66;100.00;100764.06;5225609;28;20021;-72
2022/09/08 00:06:12;;;;;;;11.23;3.65;;;;;;;17.68;100.00;100770.13;5228815;28;20080;-72
2022/09/08 00:08:45;;;;;;;9.43;3.10;;;;;;;17.64;100.00;100764.22;5232739;28;20077;-72
2022/09/08 00:11:23;;;;;;;7.95;3.15;;;;;;;17.57;100.00;100772.16;5225546;28;20029;-72
2022/09/08 00:14:04;;;;;;;11.38;3.67;;;;;;;17.56;100.00;100770.44;5231744;28;20040;-70
2022/09/08 00:16:39;;;;;;;11.13;3.90;;;;;;;17.55;100.00;100774.19;5231816;28;20033;-69
2022/09/08 00:19:10;;;;;;;13.20;4.22;;;;;;;17.54;100.00;100763.53;5231186;28;20119;-70
2022/09/08 00:21:41;;;;;;;10.70;3.83;;;;;;;17.40;100.00;100756.94;5233836;28;20120;-70
2022/09/08 00:24:13;;;;;;;9.35;4.35;;;;;;;17.34;100.00;100747.66;5230557;28;20395;-70
2022/09/08 00:26:44;;;;;;;10.43;3.30;;;;;;;17.33;100.00;100745.09;5225205;28;20372;-71
2022/09/08 00:29:15;;;;;;;9.23;3.45;;;;;;;17.21;100.00;100739.19;5223989;28;20029;-71
2022/09/08 00:31:47;;;;;;;10.38;3.15;;;;;;;17.21;100.00;100733.78;5231847;28;20029;-71
2022/09/08 00:34:18;;;;;;;8.48;3.38;;;;;;;17.26;100.00;100739.53;5226975;28;20038;-70
2022/09/08 00:36:50;;;;;;;8.93;3.53;;;;;;;17.08;100.00;100739.63;5233497;28;20053;-70
2022/09/08 00:39:22;;;;;;;6.70;3.13;;;;;;;17.04;100.00;100736.41;5228832;28;20566;-70
2022/09/08 00:41:57;;;;;;;9.13;3.28;;;;;;;16.99;100.00;100736.06;5235459;28;20056;-71
2022/09/08 00:44:39;;;;;;;;;;;;;;;17.06;100.00;100728.16;5232608;28;20056;-71
2022/09/08 00:47:21;;;;;;;6.25;2.90;;;;;;;17.01;100.00;100722.44;5229196;28;19925;-71
2022/09/08 00:50:03;;;;;;;9.98;3.83;;;;;;;17.01;100.00;100717.88;5231463;28;20029;-71
2022/09/08 00:53:04;;;;;;;7.10;3.00;;;;;;;16.96;100.00;100714.81;5234832;28;20033;-70
2022/09/08 00:55:38;;;;;;;10.57;3.25;;;;;;;16.88;100.00;100713.97;5235295;28;20044;-71
2022/09/08 00:58:11;;;;;;;10.23;3.85;;;;;;;16.81;100.00;100711.84;5225574;28;20544;-70
2022/09/08 01:00:43;;;;;;;11.82;3.50;;;;;;;16.88;100.00;100705.88;5226469;28;20079;-69
2022/09/08 01:03:15;;;;;;;8.05;3.33;;;;;;;16.85;100.00;100701.63;5230254;28;20040;-70
2022/09/08 01:05:55;;;;;;;9.70;3.35;;;;;;;16.78;100.00;100696.03;5239710;28;20025;-71
2022/09/08 01:14:53;;;;;;;8.23;3.60;;;;;;;16.70;100.00;100697.81;5245205;28;20422;-70
2022/09/08 01:17:27;;;;;;;7.88;3.78;;;;;;;16.60;100.00;100688.00;5236094;28;20704;-69
2022/09/08 01:20:01;;;;;;;8.80;2.85;;;;;;;16.53;100.00;100681.59;5236790;28;20049;-70
2022/09/08 01:22:48;;;;;;;7.03;2.88;;;;;;;16.48;100.00;100683.09;5234322;28;20486;-70
2022/09/08 01:25:28;;;;;;;9.18;3.25;;;;;;;16.60;100.00;100681.78;5236873;28;20029;-69
2022/09/08 01:28:30;;;;;;;7.13;2.80;;;;;;;16.46;100.00;100670.59;5236615;28;20033;-70
2022/09/08 01:31:03;;;;;;;6.50;2.45;;;;;;;16.38;100.00;100653.56;5241417;28;20455;-70
2022/09/08 01:33:34;;;;;;;7.35;2.30;;;;;;;16.56;100.00;100656.19;5234517;28;20021;-70
2022/09/08 01:36:11;;;;;;;6.47;2.28;;;;;;;16.48;100.00;100658.84;5235232;28;20040;-70
2022/09/08 01:38:43;;;;;;;8.82;2.38;;;;;;;16.44;100.00;100661.00;5231210;28;20154;-69
2022/09/08 01:41:14;;;;;;;8.35;2.60;;;;;;;16.56;100.00;100664.25;5229503;28;20033;-69
2022/09/08 01:43:46;;;;;;;6.10;2.53;;;;;;;16.60;100.00;100665.63;5238215;28;20046;-69
2022/09/08 01:46:17;;;;;;;5.43;2.20;;;;;;;16.46;100.00;100661.69;5237637;28;20036;-69
2022/09/08 01:48:48;;;;;;;10.25;3.47;;;;;;;16.52;100.00;100661.03;5242442;28;20505;-69
2022/09/08 01:51:19;;;;;;;9.60;2.50;;;;;;;16.49;100.00;100664.03;5234112;28;20394;-70
2022/09/08 01:53:51;;;;;;;8.82;2.55;;;;;;;16.35;100.00;100648.50;5235829;28;20398;-69
2022/09/08 01:56:23;;;;;;;7.38;2.63;;;;;;;16.45;100.00;100651.91;5231309;28;20944;-69
2022/09/08 01:58:54;;;;;;;7.22;2.30;;;;;;;16.40;100.00;100652.41;5237264;28;20024;-70
2022/09/08 02:01:25;;;;;;;8.15;2.97;;;;;;;16.49;100.00;100638.97;5231885;28;20661;-69
2022/09/08 02:03:57;;;;;;;9.05;3.55;;;;;;;16.38;100.00;100635.56;5234553;28;20486;-70
2022/09/08 02:06:28;;;;;;;6.47;2.75;;;;;;;16.36;100.00;100636.75;5232316;28;20038;-70
2022/09/08 02:08:59;;;;;;;6.28;2.80;;;;;;;16.32;100.00;100632.66;5237552;28;20044;-68
2022/09/08 02:11:31;;;;;;;5.45;2.60;;;;;;;16.27;100.00;100628.59;5238623;28;20033;-70
2022/09/08 02:14:03;;;;;;;7.53;2.80;;;;;;;16.26;100.00;100613.47;5237821;28;20032;-69
2022/09/08 02:16:34;;;;;;;7.35;2.78;;;;;;;16.24;100.00;100612.78;5234958;28;20034;-69
2022/09/08 02:19:06;;;;;;;6.70;2.70;;;;;;;16.34;100.00;100618.03;5242308;28;20067;-69
2022/09/08 02:21:37;;;;;;;7.50;2.70;;;;;;;16.37;100.00;100612.31;5236455;28;20029;-69
2022/09/08 02:24:08;;;;;;;8.40;2.50;;;;;;;16.27;100.00;100611.59;5237561;28;20517;-68
2022/09/08 02:26:40;;;;;;;9.80;2.80;;;;;;;16.21;100.00;100621.16;5237695;28;20029;-70
2022/09/08 02:29:12;;;;;;;7.75;3.33;;;;;;;16.19;100.00;100612.41;5235629;28;20025;-68
2022/09/08 02:31:43;;;;;;;9.50;3.55;;;;;;;16.21;100.00;100618.47;5232624;28;20394;-70
2022/09/08 02:34:14;;;;;;;6.10;3.15;;;;;;;16.20;100.00;100616.81;5238550;28;21305;-70
2022/09/08 02:36:46;;;;;;;8.88;3.28;;;;;;;16.16;100.00;100604.63;5236303;28;20114;-68
2022/09/08 02:39:19;;;;;;;8.70;3.40;;;;;;;16.15;100.00;100602.97;5237888;28;20151;-70
2022/09/08 02:41:51;;;;;;;8.35;3.10;;;;;;;16.20;100.00;100606.03;5239617;28;20055;-70
2022/09/08 02:44:22;;;;;;;8.30;3.28;;;;;;;16.24;100.00;100607.41;5228001;28;20095;-68
2022/09/08 02:46:53;;;;;;;7.57;3.13;;;;;;;16.14;100.00;100611.19;5231906;28;20029;-68
2022/09/08 02:49:24;;;;;;;8.55;3.20;;;;;;;16.12;100.00;100608.66;5242066;28;20037;-70
2022/09/08 02:51:56;;;;;;;8.85;3.42;;;;;;;16.12;100.00;100607.81;5235190;28;20032;-69
2022/09/08 02:54:27;;;;;;;7.25;3.67;;;;;;;16.17;100.00;100616.28;5239716;28;20158;-69
2022/09/08 02:56:58;;;;;;;7.97;3.33;;;;;;;16.15;100.00;100611.03;5232420;28;20044;-70
2022/09/08 02:59:30;;;;;;;9.63;3.70;;;;;;;16.23;100.00;100611.09;5238676;28;20452;-70
2022/09/08 03:02:02;;;;;;;7.35;3.47;;;;;;;16.12;100.00;100611.34;5232732;28;20571;-70
2022/09/08 03:04:33;;;;;;;7.50;3.40;;;;;;;16.08;100.00;100607.28;5235320;28;20394;-68
2022/09/08 03:07:04;;;;;;;8.85;3.80;;;;;;;16.05;100.00;100599.53;5235726;28;20395;-69
2022/09/08 03:09:35;;;;;;;8.40;3.75;;;;;;;16.12;100.00;100608.66;5235957;28;20028;-70
2022/09/08 03:12:07;;;;;;;7.78;3.47;;;;;;;16.01;100.00;100606.22;5238512;28;20030;-69
2022/09/08 03:14:38;;;;;;;8.13;3.80;;;;;;;15.98;100.00;100606.56;5237797;28;20114;-69
2022/09/08 03:17:10;;;;;;;7.70;3.90;;;;;;;16.02;100.00;100607.94;5237200;28;20032;-70
2022/09/08 03:19:41;;;;;;;7.20;3.80;;;;;;;15.98;100.00;100615.47;5241304;28;20036;-69
2022/09/08 03:22:12;;;;;;;7.55;3.75;;;;;;;16.00;100.00;100604.56;5234531;28;20811;-70
2022/09/08 03:24:44;;;;;;;7.80;3.97;;;;;;;16.02;100.00;100606.09;5243617;28;20108;-71
2022/09/08 03:27:15;;;;;;;7.80;4.28;;;;;;;15.94;100.00;100603.34;5242915;28;20038;-69
2022/09/08 03:29:46;;;;;;;10.43;4.22;;;;;;;15.99;100.00;100606.41;5243391;28;20021;-70
2022/09/08 03:32:17;;;;;;;6.65;4.22;;;;;;;16.00;100.00;100616.16;5238413;28;20063;-71
2022/09/08 03:34:49;;;;;;;9.82;4.43;;;;;;;15.98;100.00;100623.56;5241552;28;20094;-71
2022/09/08 03:37:21;;;;;;;7.85;4.03;;;;;;;16.01;100.00;100633.16;5237644;28;20013;-71
2022/09/08 03:39:52;;;;;;;10.45;4.15;;;;;;;15.93;100.00;100650.06;5242485;28;20022;-69
2022/09/08 03:42:23;;;;;;;10.90;4.10;;;;;;;15.95;100.00;100652.63;5236677;28;20041;-71
2022/09/08 03:44:54;;;;;;;8.43;4.45;;;;;;;15.90;100.00;100654.91;5241811;28;20090;-70
2022/09/08 03:47:26;;;;;;;7.97;4.22;;;;;;;15.86;100.00;100636.41;5235301;28;20029;-70
2022/09/08 03:49:58;;;;;;;10.93;4.32;;;;;;;15.76;100.00;100608.78;5241776;28;20036;-69
2022/09/08 03:52:29;;;;;;;10.35;4.30;;;;;;;15.76;100.00;100619.53;5240054;28;20017;-69
2022/09/08 03:55:01;;;;;;;6.22;3.97;;;;;;;15.74;100.00;100605.38;5245263;28;20029;-69
2022/09/08 03:57:32;;;;;;;10.20;4.50;;;;;;;15.67;100.00;100615.06;5239225;28;20026;-69
2022/09/08 04:00:07;;;;;;;9.77;4.35;;;;;;;15.57;100.00;100599.03;5237155;28;20030;-70
2022/09/08 04:02:38;;;;;;;10.65;4.45;;;;;;;15.51;100.00;100593.41;5241262;28;20535;-69
2022/09/08 04:05:10;;;;;;;8.90;4.15;;;;;;;15.44;100.00;100594.03;5235033;28;20433;-69
2022/09/08 04:07:42;;;;;;;8.50;4.88;;;;;;;15.40;100.00;100603.41;5240434;28;20038;-70
2022/09/08 04:10:15;;;;;;;9.00;4.55;;;;;;;15.34;100.00;100597.81;5240467;28;20036;-71
2022/09/08 04:12:46;;;;;;;10.57;4.75;;;;;;;15.29;100.00;100595.59;5237706;28;20029;-70
2022/09/08 04:15:18;;;;;;;11.23;5.10;;;;;;;15.27;100.00;100594.91;5237128;28;20047;-69
2022/09/08 04:17:49;;;;;;;10.20;5.13;;;;;;;15.23;100.00;100596.22;5236389;28;20028;-71
2022/09/08 04:20:21;;;;;;;10.48;4.80;;;;;;;15.20;100.00;100604.56;5240654;28;20364;-70
2022/09/08 04:22:52;;;;;;;13.82;5.85;;;;;;;15.19;100.00;100606.41;5235882;28;20053;-69
2022/09/08 04:25:24;;;;;;;11.35;5.30;;;;;;;15.19;100.00;100603.72;5234211;28;20029;-70
2022/09/08 04:27:55;;;;;;;13.77;5.05;;;;;;;15.14;100.00;100608.72;5237712;28;20025;-69
2022/09/08 04:30:26;;;;;;;10.35;5.35;;;;;;;15.22;100.00;100606.09;5238576;28;20030;-70
2022/09/08 04:32:57;;;;;;;11.00;5.32;;;;;;;15.20;100.00;100612.63;5235288;28;20040;-70
2022/09/08 04:35:29;;;;;;;15.90;5.95;;;;;;;15.28;100.00;100616.25;5243454;28;20658;-70
2022/09/08 04:38:00;;;;;;;11.30;5.85;;;;;;;15.33;100.00;100618.47;5241277;28;20530;-70
2022/09/08 04:40:33;;;;;;;12.95;6.00;;;;;;;15.23;100.00;100620.41;5244218;28;20368;-70
2022/09/08 04:43:05;;;;;;;14.45;6.40;;;;;;;15.27;100.00;100617.25;5237899;28;20151;-69
2022/09/08 04:45:36;;;;;;;14.93;7.55;;;;;;;15.24;100.00;100622.06;5234371;28;20564;-69
2022/09/08 04:48:07;;;;;;;20.27;7.70;;;;;;;15.21;100.00;100617.03;5240676;28;20471;-70
2022/09/08 04:50:39;;;;;;;17.27;7.70;;;;;;;15.26;100.00;100628.13;5235078;28;20117;-70
2022/09/08 04:53:10;;;;;;;17.67;8.27;;;;;;;15.28;100.00;100627.00;5231606;28;21207;-69
2022/09/08 04:55:41;;;;;;;18.13;8.10;;;;;;;15.40;100.00;100618.72;5234887;28;20077;-69
2022/09/08 04:58:12;;;;;;;14.68;8.43;;;;;;;15.39;100.00;100617.00;5234381;28;20465;-69
2022/09/08 05:00:44;;;;;;;16.33;8.43;;;;;;;15.43;100.00;100632.66;5237544;28;20479;-70
2022/09/08 05:03:16;;;;;;;16.45;8.40;;;;;;;15.43;100.00;100626.44;5243591;28;20479;-70
2022/09/08 05:05:47;;;;;;;17.73;8.55;;;;;;;15.39;100.00;100633.97;5233212;28;20072;-70
2022/09/08 05:08:19;;;;;;;14.25;8.73;;;;;;;15.34;100.00;100633.63;5237158;28;20030;-71
2022/09/08 05:10:51;;;;;;;17.77;9.18;;;;;;;15.43;100.00;100624.59;5235973;28;20028;-69
2022/09/08 05:13:23;;;;;;;18.65;9.25;;;;;;;15.44;100.00;100622.78;5236959;28;20037;-69
2022/09/08 05:16:15;;;;;;;17.35;9.52;;;;;;;15.42;100.00;100633.69;5239537;28;20580;-69
2022/09/08 05:18:53;;;;;;;16.05;9.23;;;;;;;15.35;100.00;100632.59;5235353;28;20084;-70
2022/09/08 05:21:25;;;;;;;17.58;9.35;;;;;;;15.37;100.00;100638.66;5233922;28;20041;-70
2022/09/08 05:24:00;;;;;;;18.10;9.82;;;;;;;15.36;100.00;100634.31;5237403;28;20057;-70
2022/09/08 05:26:34;;;;;;;18.10;10.65;;;;;;;15.39;100.00;100633.13;5227398;28;20120;-69
2022/09/08 05:29:05;;;;;;;22.98;11.07;;;;;;;15.38;100.00;100636.81;5226227;28;20034;-70
2022/09/08 05:31:36;;;;;;;21.38;11.05;;;;;;;15.38;100.00;100639.50;5227925;28;20391;-70
2022/09/08 05:34:08;;;;;;;24.17;11.00;;;;;;;15.29;100.00;100630.53;5238220;28;20563;-69
2022/09/08 05:36:40;;;;;;;23.98;11.27;;;;;;;15.31;100.00;100625.00;5229260;28;20538;-69
2022/09/08 05:39:11;;;;;;;24.70;11.23;;;;;;;15.40;100.00;100629.47;5237838;28;20429;-68
2022/09/08 05:41:42;;;;;;;26.83;10.45;;;;;;;15.32;100.00;100622.13;5230289;28;20536;-68
2022/09/08 05:44:14;;;;;;;15.60;7.18;;;;;;;15.40;100.00;100632.16;5232227;28;20041;-68
2022/09/08 05:46:45;;;;;;;4.18;1.60;;;;;;;15.40;100.00;100616.88;5224807;28;20458;-69
2022/09/08 05:49:16;;;;;;;2.92;1.10;;;;;;;15.40;100.00;100616.88;5232369;28;20035;-70
2022/09/08 05:51:52;;;;;;;2.22;0.80;;;;;;;15.41;100.00;100621.22;5236596;28;20036;-70
2022/09/08 05:54:24;;;;;;;2.08;0.70;;;;;;;15.40;100.00;100634.84;5245541;28;20029;-70
2022/09/08 05:56:56;;;;;;;1.23;0.40;;;;;;;15.38;100.00;100637.69;5228608;28;20041;-70
2022/09/08 05:59:28;;;;;;;1.52;0.45;;;;;;;15.39;100.00;100627.75;5235857;28;20021;-70
2022/09/08 06:01:59;;;;;;;1.30;0.30;;;;;;;15.37;100.00;100617.16;5227663;28;20044;-70
2022/09/08 06:04:30;;;;;;;0.45;0.10;;;;;;;15.38;100.00;100623.38;5243074;28;20025;-71
2022/09/08 06:07:02;;;;;;;1.52;0.20;;;;;;;15.39;100.00;100627.75;5231679;28;20021;-71
2022/09/08 06:09:33;;;;;;;0.65;0.10;;;;;;;15.41;100.00;100621.22;5230490;28;20395;-71
2022/09/08 06:12:04;;;;;;;0.20;0.10;;;;;;;15.46;100.00;100640.44;5229272;28;20550;-71
2022/09/08 06:14:36;;;;;;;0.63;0.13;;;;;;;15.52;100.00;100632.75;5237861;28;20514;-71
2022/09/08 06:17:07;;;;;;;0.35;0.10;;;;;;;15.56;100.00;100631.44;5234977;28;20369;-71
2022/09/08 06:19:39;;;;;;;0.25;0.10;;;;;;;15.54;100.00;100633.44;5232442;28;20384;-71
2022/09/08 06:22:10;;;;;;;0.45;0.00;;;;;;;15.57;100.00;100635.81;5234574;28;20044;-71
2022/09/08 06:24:41;;;;;;;0.20;0.00;;;;;;;15.57;100.00;100625.06;5232445;28;20934;-71
2022/09/08 06:27:38;;;;;;;0.30;0.00;;;;;;;15.58;100.00;100626.75;5218959;28;20057;-71
2022/09/08 06:30:16;;;;;;;0.20;0.00;;;;;;;15.56;100.00;100631.44;5217900;28;20044;-71
2022/09/08 06:33:01;;;;;;;0.30;0.00;;;;;;;15.55;100.00;100637.81;5218257;28;20025;-71
2022/09/08 06:35:33;;;;;;;0.17;0.00;;;;;;;15.55;100.00;100635.13;5221292;28;20045;-71
2022/09/08 06:38:10;;;;;;;0.20;0.00;;;;;;;15.58;100.00;100635.66;5225384;28;21360;-68
2022/09/08 06:40:45;;;;;;;0.20;0.00;;;;;;;15.61;100.00;100642.56;5228534;28;20028;-68
2022/09/08 06:43:16;;;;;;;0.38;0.00;;;;;;;15.62;100.00;100636.19;5257000;28;20617;-68
2022/09/08 06:45:58;;;;;;;0.05;0.00;;;;;;;15.63;100.00;100644.13;5231864;28;20040;-68
2022/09/08 06:48:31;;;;;;;0.00;0.00;;;;;;;15.63;100.00;100646.81;5228151;28;20563;-69
2022/09/08 06:51:08;;;;;;;0.00;0.00;;;;;;;15.65;100.00;100655.56;5226744;28;20055;-71
2022/09/08 06:54:08;;;;;;;0.10;0.00;;;;;;;15.67;100.00;100652.72;5227127;28;20300;-71
2022/09/08 06:56:41;;;;;;;0.10;0.00;;;;;;;15.69;100.00;100639.97;5231177;28;20891;-71
2022/09/08 06:59:54;;;;;;;0.00;0.00;;;;;;;15.74;100.00;100648.41;5229488;28;20029;-70
2022/09/08 07:02:56;;;;;;;0.00;0.00;;;;;;;15.78;100.00;100646.25;5227615;28;20513;-71
2022/09/08 07:05:33;;;;;;;0.00;0.00;;;;;;;15.77;100.00;100636.53;5231566;28;20100;-70
2022/09/08 07:08:26;;;;;;;0.00;0.00;;;;;;;15.80;100.00;100652.34;5233013;28;20489;-70
2022/09/08 07:11:17;;;;;;;0.00;0.00;;;;;;;15.82;100.00;100643.13;5229311;28;20497;-70
2022/09/08 07:14:07;;;;;;;0.10;0.00;;;;;;;15.84;100.00;100632.22;5228622;28;20163;-71
2022/09/08 07:17:07;;;;;;;0.00;0.00;;;;;;;15.85;100.00;100650.03;5228924;28;20075;-71
2022/09/08 07:19:53;;;;;;;0.00;0.00;;;;;;;15.85;100.00;100650.88;5230345;28;20614;-70
2022/09/08 07:22:45;;;;;;;0.00;0.00;;;;;;;15.85;100.00;100642.78;5229840;28;20370;-71
2022/09/08 07:25:19;;;;;;;0.00;0.00;;;;;;;15.85;100.00;100645.47;5229802;28;20033;-70
2022/09/08 07:28:00;;;;;;;0.00;0.00;;;;;;;15.87;100.00;100643.47;5219219;28;20060;-70
2022/09/08 07:30:35;;;;;;;0.08;0.00;;;;;;;15.90;100.00;100652.22;5218106;28;20043;-69
2022/09/08 07:33:34;;;;;;;0.00;0.00;;;;;;;15.90;100.00;100655.78;5237947;28;20049;-69
2022/09/08 07:36:20;;;;;;;0.00;0.00;;;;;;;15.92;100.00;100652.94;5243434;28;20132;-70
2022/09/08 07:38:54;;;;;;;0.00;0.00;;;;;;;15.95;100.00;100656.16;5219871;28;20464;-71
2022/09/08 07:41:34;;;;;;;0.00;0.00;;;;;;;16.01;100.00;100652.84;5232036;28;20033;-71
2022/09/08 07:44:13;;;;;;;0.00;0.00;;;;;;;16.07;100.00;100646.00;5225454;28;20049;-71
2022/09/08 07:47:22;;;;;;;0.00;0.00;;;;;;;16.14;100.00;100643.50;5234878;28;20087;-70
2022/09/08 07:50:15;;;;;;;0.20;0.00;;;;;;;16.17;100.00;100648.56;5226232;28;20055;-70
2022/09/08 07:53:07;;;;;;;0.10;0.00;;;;;;;16.20;100.00;100649.09;5226544;28;20218;-70
2022/09/08 07:55:43;;;;;;;0.00;0.00;;;;;;;16.15;100.00;100654.13;5236256;28;20033;-70
2022/09/08 07:58:25;;;;;;;0.00;0.00;;;;;;;16.12;100.00;100657.09;5235152;28;20021;-71
2022/09/08 08:01:11;;;;;;;0.10;0.00;;;;;;;16.14;100.00;100662.34;5230880;28;20368;-71
2022/09/08 08:03:45;;;;;;;0.00;0.00;;;;;;;16.05;100.00;100658.72;5233228;28;20035;-71
2022/09/08 08:06:27;;;;;;;0.17;0.00;;;;;;;15.97;100.00;100662.22;5229276;28;20071;-71
2022/09/08 08:09:13;;;;;;;0.10;0.00;;;;;;;15.93;100.00;100660.84;5233203;28;20037;-71
2022/09/08 08:12:03;;;;;;;0.10;0.00;;;;;;;15.94;100.00;100664.41;5236333;28;20031;-71
2022/09/08 08:14:55;;;;;;;0.00;0.00;;;;;;;15.94;100.00;100664.41;5242112;28;20030;-71
2022/09/08 08:17:35;;;;;;;0.08;0.00;;;;;;;15.95;100.00;100661.53;5227859;28;20495;-71
2022/09/08 08:20:21;;;;;;;0.00;0.00;;;;;;;15.96;100.00;100665.09;5238349;28;20037;-70
2022/09/08 08:23:11;;;;;;;0.00;0.00;;;;;;;15.93;100.00;100660.84;5228909;28;20034;-71
2022/09/08 08:25:58;;;;;;;0.10;0.00;;;;;;;15.95;100.00;100666.06;5228599;28;20033;-71
2022/09/08 08:28:42;;;;;;;0.03;0.03;;;;;;;15.93;100.00;100668.06;5225879;28;20037;-69
2022/09/08 08:31:24;;;;;;;0.00;0.00;;;;;;;15.93;100.00;100662.69;5233616;28;20036;-69
2022/09/08 08:34:10;;;;;;;0.00;0.00;;;;;;;15.93;100.00;100666.22;5236492;28;20365;-68
2022/09/08 08:36:45;;;;;;;0.00;0.00;;;;;;;15.94;100.00;100667.09;5222059;28;20104;-70
2022/09/08 08:39:20;;;;;;;0.00;0.00;;;;;;;16.00;100.00;100666.47;5236821;28;20039;-70
2022/09/08 08:41:54;;;;;;;0.00;0.00;;;;;;;16.05;100.00;100675.75;5229961;28;20025;-70
2022/09/08 08:44:28;;;;;;;0.00;0.00;;;;;;;16.11;100.00;100666.19;5241743;28;20463;-70
2022/09/08 08:47:37;;;;;;;0.05;0.00;;;;;;;16.18;100.00;100678.00;5233257;28;20037;-70
2022/09/08 08:50:46;;;;;;;0.00;0.00;;;;;;;16.30;100.00;100659.75;5237865;28;20037;-70
2022/09/08 08:53:29;;;;;;;0.00;0.00;;;;;;;16.36;100.00;100669.06;5235028;28;20029;-71
2022/09/08 08:56:25;;;;;;;0.00;0.00;;;;;;;16.42;100.00;100669.25;5234531;28;20042;-72
2022/09/08 08:59:29;;;;;;;0.10;0.00;;;;;;;16.42;100.00;100673.78;5235103;28;20667;-72
2022/09/08 09:02:22;;;;;;;0.00;0.00;;;;;;;16.40;100.00;100670.41;5232479;28;20033;-72
2022/09/08 09:05:26;;;;;;;0.00;0.00;;;;;;;16.45;100.00;100662.69;5232192;28;20043;-68
2022/09/08 09:08:20;;;;;;;0.00;0.00;;;;;;;16.46;100.00;100659.84;5227694;28;20048;-68
2022/09/08 09:11:02;;;;;;;0.00;0.00;;;;;;;16.54;100.00;100660.88;5235359;28;20021;-70
2022/09/08 09:13:52;;;;;;;0.00;0.00;;;;;;;16.65;100.00;100666.00;5234744;28;20565;-71
2022/09/08 09:16:33;;;;;;;0.00;0.00;;;;;;;16.74;100.00;100656.09;5232653;28;21924;-70
2022/09/08 09:19:42;;;;;;;0.00;0.00;;;;;;;16.84;100.00;100670.31;5227987;28;20013;-71
2022/09/08 09:22:31;;;;;;;0.00;0.00;;;;;;;16.90;100.00;100666.13;5236834;28;20090;-70
2022/09/08 09:25:34;;;;;;;0.00;0.00;;;;;;;16.88;100.00;100666.28;5223985;28;20028;-71
2022/09/08 09:28:22;;;;;;;0.10;0.00;;;;;;;16.92;100.00;100667.66;5222570;28;20115;-70
2022/09/08 09:31:08;;;;;;;0.05;0.00;;;;;;;16.96;100.00;100663.63;5230732;28;20529;-69
2022/09/08 09:34:12;;;;;;;0.03;0.00;;;;;;;17.02;100.00;100662.13;5227328;28;20085;-69
2022/09/08 09:36:49;;;;;;;0.00;0.00;;;;;;;17.04;100.00;100657.41;5230639;28;20037;-71
2022/09/08 09:39:20;;;;;;;0.05;0.00;;;;;;;17.07;100.00;100650.81;5230950;28;20785;-71
2022/09/08 09:41:55;;;;;;;0.00;0.00;;;;;;;17.08;100.00;100660.63;5234799;28;20025;-69
2022/09/08 09:45:16;;;;;;;0.30;0.05;;;;;;;17.07;100.00;100665.16;5239551;28;20057;-70
2022/09/08 09:47:56;;;;;;;0.00;0.00;;;;;;;17.03;100.00;100670.03;5220450;28;20422;-72
2022/09/08 09:50:54;;;;;;;0.52;0.00;;;;;;;17.11;100.00;100665.69;5238286;28;20034;-71
2022/09/08 09:53:31;;;;;;;0.00;0.00;;;;;;;17.15;100.00;100662.50;5239790;28;20044;-71
2022/09/08 09:56:23;;;;;;;0.00;0.00;;;;;;;17.24;100.00;100657.97;5232407;28;20037;-71
2022/09/08 09:59:16;;;;;;;0.00;0.00;;;;;;;17.35;100.00;100665.72;5232109;28;20107;-71
2022/09/08 10:02:12;;;;;;;0.00;0.00;;;;;;;17.37;100.00;100666.41;5235928;28;20083;-71
2022/09/08 10:05:28;;;;;;;0.00;0.00;;;;;;;17.40;100.00;100674.16;5227892;28;20397;-71
2022/09/08 10:08:37;;;;;;;0.00;0.00;;;;;;;17.37;100.00;100673.66;5225663;28;21733;-71
2022/09/08 10:11:23;;;;;;;0.00;0.00;;;;;;;17.36;100.00;100669.28;5244125;28;20080;-71
2022/09/08 10:14:22;;;;;;;0.15;0.00;;;;;;;17.36;100.00;100672.81;5219622;28;20033;-70
2022/09/08 10:17:05;;;;;;;0.00;0.00;;;;;;;17.36;100.00;100680.91;5226189;28;20467;-70
2022/09/08 10:19:55;;;;;;;0.00;0.00;;;;;;;17.34;100.00;100679.38;5241098;28;20026;-71
2022/09/08 10:22:43;;;;;;;0.30;0.00;;;;;;;17.29;100.00;100677.16;5233248;28;20025;-71
2022/09/08 10:26:05;;;;;;;0.05;0.00;;;;;;;17.33;100.00;100675.00;5228679;28;20040;-70
2022/09/08 10:28:58;;;;;;;0.00;0.00;;;;;;;17.33;100.00;100683.91;5248676;28;20050;-71
2022/09/08 10:31:41;;;;;;;0.00;0.00;;;;;;;17.34;100.00;100680.22;5233708;28;20032;-71
2022/09/08 10:34:18;;;;;;;0.00;0.00;;;;;;;17.41;100.00;100672.31;5226869;28;20041;-71
2022/09/08 10:36:58;;;;;;;0.00;0.00;;;;;;;17.42;100.00;100679.41;5237642;28;20033;-71
2022/09/08 10:40:07;;;;;;;0.00;0.00;;;;;;;17.43;100.00;100681.06;5224573;28;20094;-72
2022/09/08 10:43:03;;;;;;;0.00;0.00;;;;;;;17.47;100.00;100678.88;5226118;28;20395;-71
2022/09/08 10:46:02;;;;;;;0.20;0.00;;;;;;;17.54;100.00;100678.06;5237935;28;20108;-65
2022/09/08 10:48:45;;;;;;;0.00;0.00;;;;;;;17.54;100.00;100664.56;5228781;28;20493;-65
2022/09/08 10:51:24;;;;;;;0.00;0.00;;;;;;;17.53;100.00;100672.84;5233539;28;20032;-65
2022/09/08 10:54:37;;;;;;;0.35;0.00;;;;;;;17.53;100.00;100665.59;5231983;28;20037;-65
2022/09/08 10:57:23;;;;;;;0.00;0.00;;;;;;;17.52;100.00;100660.34;5230467;28;20046;-65
2022/09/08 11:00:03;;;;;;;0.00;0.00;;;;;;;17.47;100.00;100658.16;5225501;28;20017;-65
2022/09/08 11:02:54;;;;;;;0.00;0.00;;;;;;;17.46;100.00;100671.81;5225125;28;20034;-65
2022/09/08 11:05:41;;;;;;;0.00;0.00;;;;;;;17.51;100.00;100667.63;5231095;28;20026;-65
2022/09/08 11:08:18;;;;;;;0.00;0.00;;;;;;;17.51;100.00;100659.53;5227808;28;20106;-65
2022/09/08 11:11:19;;;;;;;0.00;0.00;;;;;;;17.55;100.00;100660.03;5235169;28;20036;-65
2022/09/08 11:14:22;;;;;;;0.00;0.00;;;;;;;17.52;100.00;100661.19;5229453;28;20456;-65
2022/09/08 11:17:09;;;;;;;0.00;0.00;;;;;;;17.54;100.00;100652.94;5227442;28;20045;-65
2022/09/08 11:19:46;;;;;;;0.00;0.00;;;;;;;17.55;100.00;100649.25;5221852;28;20040;-65
2022/09/08 11:22:38;;;;;;;0.00;0.00;;;;;;;17.60;100.00;100658.53;5231305;28;20029;-66
2022/09/08 11:25:26;;;;;;;0.00;0.00;;;;;;;17.62;100.00;100658.31;5233993;28;20041;-65
2022/09/08 11:28:25;;;;;;;0.00;0.00;;;;;;;17.67;100.00;100652.44;5226141;28;20470;-65
2022/09/08 11:31:02;;;;;;;0.00;0.00;;;;;;;17.63;100.00;100630.34;5228717;28;20030;-66
2022/09/08 11:33:40;;;;;;;0.00;0.00;;;;;;;17.63;100.00;100641.97;5225381;28;20471;-66
2022/09/08 11:36:56;;;;;;;0.43;0.05;;;;;;;17.73;100.00;100631.00;5237253;28;20035;-64
2022/09/08 11:39:55;;;;;;;0.00;0.00;;;;;;;17.85;100.00;100636.09;5227519;28;20041;-65
2022/09/08 11:42:58;;;;;;;0.00;0.00;;;;;;;17.90;100.00;100634.56;5223692;28;20479;-65
2022/09/08 11:45:48;;;;;;;0.00;0.00;;;;;;;17.92;100.00;100629.84;5238272;28;20033;-65
2022/09/08 11:48:36;;;;;;;0.00;0.00;;;;;;;17.91;100.00;100644.38;5230578;28;20043;-65
2022/09/08 11:51:55;;;;;;;0.10;0.00;;;;;;;17.92;100.00;100637.13;5227579;28;20040;-66
2022/09/08 11:54:46;;;;;;;0.00;0.00;;;;;;;17.98;100.00;100634.56;5246441;28;20042;-66
2022/09/08 11:57:31;;;;;;;0.00;0.00;;;;;;;18.08;100.00;100628.97;5230073;28;20087;-65
2022/09/08 12:00:32;;;;;;;0.00;0.00;;;;;;;18.21;100.00;100620.34;5236031;28;20025;-66
2022/09/08 12:03:21;;;;;;;0.10;0.00;;;;;;;18.34;100.00;100617.09;5230635;28;20032;-65
2022/09/08 12:05:52;;;;;;;0.00;0.00;;;;;;;18.47;100.00;100605.75;5237658;28;20029;-65
2022/09/08 12:09:19;;;;;;;0.00;0.00;;;;;;;18.60;100.00;100609.56;5229339;28;20029;-66
2022/09/08 12:12:15;;;;;;;0.00;0.00;;;;;;;18.64;100.00;100610.06;5227294;28;20299;-66
2022/09/08 12:15:27;;;;;;;0.00;0.00;;;;;;;18.69;100.00;100609.53;5231680;28;20103;-66
2022/09/08 12:18:24;;;;;;;0.10;0.00;;;;;;;18.74;100.00;100601.75;5229753;28;20407;-66
2022/09/08 12:21:20;;;;;;;0.15;0.00;;;;;;;18.82;100.00;100599.03;5225180;28;20124;-66